Terminal Aerodrome Forecast
Issued by NWS Sterling, VA

Home | Current Version | Previous Version | Text Only | Print | Product List | Glossary On
Versions: 1 2 3 4 5 6 7 8 9 10 11 12 13 14 15 16 17 18 19 20 21 22 23 24 25 26 27 28 29
000
FTUS41 KLWX 261500 AAC
TAFDCA
TAF AMD
KDCA 261504Z 2615/2712 06011G18KT 5SM -SN OVC009
     FM262100 02012G20KT 3SM -SN OVC008
     FM270200 01012G20KT 1SM -SN OVC008
     FM270800 34010KT 1 1/2SM -SN OVC008=

USA.gov is the U.S. government's official web portal to all federal, state and local government web resources and services.